createdAt,value
2023-01-12T00:00:24.307Z,9.4
2023-01-12T00:05:59.909Z,9.4
2023-01-12T00:11:35.332Z,9.3
2023-01-12T00:17:10.565Z,9.2
2023-01-12T00:22:45.371Z,9.2
2023-01-12T00:28:20.565Z,9.2
2023-01-12T00:33:56.540Z,9.2
2023-01-12T00:39:31.893Z,9.2
2023-01-12T00:45:07.702Z,9.2
2023-01-12T00:50:44.473Z,9.1
2023-01-12T00:56:20.532Z,9
2023-01-12T01:01:56.085Z,9
2023-01-12T01:07:32.633Z,9
2023-01-12T01:13:07.923Z,8.9
2023-01-12T01:18:43.335Z,8.9
2023-01-12T01:24:18.806Z,8.9
2023-01-12T01:29:55.509Z,8.9
2023-01-12T01:35:31.002Z,8.9
2023-01-12T01:41:06.695Z,8.8
2023-01-12T01:46:42.031Z,8.8
2023-01-12T01:52:18.461Z,8.8
2023-01-12T01:57:53.696Z,8.7
2023-01-12T02:03:29.461Z,8.7
2023-01-12T02:09:12.050Z,8.7
2023-01-12T02:14:47.695Z,8.7
2023-01-12T02:20:24.924Z,8.7
2023-01-12T02:26:00.970Z,8.7
2023-01-12T02:31:37.390Z,8.6
2023-01-12T02:37:13.995Z,8.7
2023-01-12T02:42:50.715Z,8.7
2023-01-12T02:48:25.982Z,8.6
2023-01-12T02:54:01.431Z,8.6
2023-01-12T02:59:44.619Z,8.6
2023-01-12T03:05:19.963Z,8.6
2023-01-12T03:10:55.117Z,8.6
2023-01-12T03:16:31.903Z,8.6
2023-01-12T03:22:08.005Z,8.6
2023-01-12T03:27:42.951Z,8.6
2023-01-12T03:33:18.375Z,8.6
2023-01-12T03:38:53.300Z,8.6
2023-01-12T03:44:28.950Z,8.5
2023-01-12T03:50:04.646Z,8.5
2023-01-12T03:55:41.189Z,8.4
2023-01-12T04:01:15.984Z,8.4
2023-01-12T04:06:54.441Z,8.4
2023-01-12T04:12:29.881Z,8.3
2023-01-12T04:18:05.070Z,8.3
2023-01-12T04:23:40.588Z,8.3
2023-01-12T04:29:15.969Z,8.4
2023-01-12T04:34:52.400Z,8.4
2023-01-12T04:40:27.500Z,8.3
2023-01-12T04:46:03.811Z,8.3
2023-01-12T04:51:40.024Z,8.3
2023-01-12T04:57:15.097Z,8.3
2023-01-12T05:02:50.387Z,8.2
2023-01-12T05:08:25.190Z,8.2
2023-01-12T05:14:00.717Z,8.2
2023-01-12T05:19:35.673Z,8.1
2023-01-12T05:25:10.800Z,8.1
2023-01-12T05:30:46.152Z,8.1
2023-01-12T05:36:24.406Z,8.1
2023-01-12T05:42:01.656Z,8.1
2023-01-12T05:47:37.409Z,8.1
2023-01-12T05:53:12.359Z,8.1
2023-01-12T05:58:48.672Z,8.1
2023-01-12T06:04:24.221Z,8.2
2023-01-12T06:10:00.324Z,8.2
2023-01-12T06:15:35.965Z,8.2
2023-01-12T06:21:12.480Z,8.1
2023-01-12T06:26:47.856Z,8.1
2023-01-12T06:32:22.916Z,8
2023-01-12T06:37:59.165Z,8
2023-01-12T06:43:34.015Z,7.9
2023-01-12T06:49:08.895Z,7.8
2023-01-12T06:54:44.684Z,7.9
2023-01-12T07:00:20.397Z,7.9
2023-01-12T07:05:55.516Z,7.9
2023-01-12T07:11:32.548Z,7.9
2023-01-12T07:17:07.711Z,7.8
2023-01-12T07:22:42.843Z,7.7
2023-01-12T07:28:18.426Z,7.3
2023-01-12T07:33:53.591Z,5.8
2023-01-12T07:39:29.429Z,5.5
2023-01-12T07:45:05.103Z,5.2
2023-01-12T07:50:39.816Z,5.4
2023-01-12T07:57:05.996Z,5.9
2023-01-12T08:02:47.640Z,6
2023-01-12T08:08:22.929Z,6.3
2023-01-12T08:13:58.054Z,6
2023-01-12T08:19:33.790Z,5.8
2023-01-12T08:25:15.179Z,6.1
2023-01-12T08:30:56.116Z,6.7
2023-01-12T08:36:33.537Z,6.7
2023-01-12T08:42:20.200Z,6.3
2023-01-12T08:47:56.213Z,6.1
2023-01-12T08:53:32.339Z,6.1
2023-01-12T08:59:09.512Z,6.8
2023-01-12T09:04:45.491Z,7.7
2023-01-12T09:10:21.271Z,8.4
2023-01-12T09:16:11.996Z,8.9
2023-01-12T09:21:49.743Z,9.1
2023-01-12T09:27:25.208Z,8.8
2023-01-12T09:33:00.644Z,8.4
2023-01-12T09:38:35.970Z,8.1
2023-01-12T09:44:12.803Z,7.8
2023-01-12T09:50:12.113Z,7.8
2023-01-12T09:55:56.209Z,8.3
2023-01-12T10:01:32.070Z,8.7
2023-01-12T10:07:07.556Z,9.5
2023-01-12T10:13:03.403Z,10.3
2023-01-12T10:18:41.858Z,11.1
2023-01-12T10:24:22.957Z,11.5
2023-01-12T10:29:58.412Z,11.9
2023-01-12T10:35:34.137Z,11.4
2023-01-12T10:41:11.367Z,11.6
2023-01-12T10:46:48.047Z,11.7
2023-01-12T10:52:26.818Z,12
2023-01-12T10:58:01.995Z,12.2
2023-01-12T11:03:38.284Z,12.1
2023-01-12T11:09:15.002Z,11.8
2023-01-12T11:14:54.064Z,11.6
2023-01-12T11:20:30.075Z,12
2023-01-12T11:26:08.555Z,12.6
2023-01-12T11:31:46.829Z,13
2023-01-12T11:37:22.900Z,13.4
2023-01-12T11:42:58.685Z,13.4
2023-01-12T11:48:56.577Z,13.3
2023-01-12T11:54:29.599Z,13.3
2023-01-12T12:00:05.212Z,13.5
2023-01-12T12:05:41.792Z,14
2023-01-12T12:11:18.164Z,14.2
2023-01-12T12:16:54.274Z,14.3
2023-01-12T12:23:00.545Z,14.3
2023-01-12T12:28:35.911Z,14.3
2023-01-12T12:34:11.117Z,14.9
2023-01-12T12:39:50.421Z,15
2023-01-12T12:45:25.190Z,15.2
2023-01-12T12:51:01.154Z,15.7
2023-01-12T12:56:36.382Z,15.9
2023-01-12T13:02:33.007Z,15.8
2023-01-12T13:08:11.992Z,16.2
2023-01-12T13:13:47.025Z,16.4
2023-01-12T13:19:43.695Z,16.5
2023-01-12T13:25:20.579Z,16.8
2023-01-12T13:31:02.796Z,16.7
2023-01-12T13:36:38.753Z,16.9
2023-01-12T13:42:13.986Z,17.5
2023-01-12T13:48:14.288Z,17.3
2023-01-12T13:53:50.846Z,17.3
2023-01-12T13:59:26.443Z,17.5
2023-01-12T14:05:08.368Z,17.3
2023-01-12T14:10:42.966Z,17.6
2023-01-12T14:16:24.526Z,17.9
2023-01-12T14:22:00.555Z,17.9
2023-01-12T14:27:36.071Z,19.5
2023-01-12T14:33:14.076Z,20.6
2023-01-12T14:38:52.735Z,19.7
2023-01-12T14:44:29.208Z,18.6
2023-01-12T14:50:05.280Z,18.5
2023-01-12T14:55:41.087Z,17.6
2023-01-12T15:01:16.835Z,17.2
2023-01-12T15:06:54.336Z,16.8
2023-01-12T15:12:30.741Z,16.3
2023-01-12T15:18:07.450Z,16.3
2023-01-12T15:23:42.766Z,15.9
2023-01-12T15:29:18.112Z,15.6
2023-01-12T15:34:57.252Z,15
2023-01-12T15:40:32.801Z,14.6
2023-01-12T15:46:09.359Z,14.1
2023-01-12T15:51:45.425Z,13.9
2023-01-12T15:57:20.354Z,13.6
2023-01-12T16:02:55.188Z,13.4
2023-01-12T16:08:31.823Z,13.1
2023-01-12T16:14:07.370Z,13
2023-01-12T16:19:42.668Z,12.5
2023-01-12T16:25:19.115Z,12.2
2023-01-12T16:30:55.910Z,12
2023-01-12T16:36:30.854Z,11.7
2023-01-12T16:42:06.073Z,11.5
2023-01-12T16:48:03.157Z,11.4
2023-01-12T16:53:37.041Z,11.2
2023-01-12T16:59:21.240Z,11
2023-01-12T17:05:02.948Z,11
2023-01-12T17:10:41.800Z,10.8
2023-01-12T17:16:18.558Z,10.9
2023-01-12T17:22:06.276Z,10.6
2023-01-12T17:27:43.454Z,11.6
2023-01-12T17:33:19.985Z,12
2023-01-12T17:38:59.290Z,12.2
2023-01-12T17:44:34.733Z,12.3
2023-01-12T17:50:10.202Z,12.3
2023-01-12T17:55:48.632Z,12.4
2023-01-12T18:01:28.116Z,12.4
2023-01-12T18:07:06.145Z,12.4
2023-01-12T18:12:41.955Z,12.4
2023-01-12T18:18:17.362Z,12.4
2023-01-12T18:23:52.286Z,12.3
2023-01-12T18:29:28.339Z,12.3
2023-01-12T18:35:03.527Z,12.3
2023-01-12T18:40:38.796Z,12.2
2023-01-12T18:46:13.921Z,12.2
2023-01-12T18:51:49.424Z,12.1
2023-01-12T18:57:24.262Z,12
2023-01-12T19:03:01.154Z,11.9
2023-01-12T19:08:38.683Z,11.8
2023-01-12T19:14:14.539Z,11.7
2023-01-12T19:19:50.274Z,11.7
2023-01-12T19:25:25.399Z,11.8
2023-01-12T19:31:01.004Z,11.8
2023-01-12T19:36:37.954Z,11.8
2023-01-12T19:42:13.181Z,11.7
2023-01-12T19:47:48.544Z,11.7
2023-01-12T19:53:24.680Z,11.6
2023-01-12T19:59:00.643Z,11.5
2023-01-12T20:04:36.041Z,11.4
2023-01-12T20:10:12.523Z,11.3
2023-01-12T20:15:48.681Z,11.3
2023-01-12T20:21:24.578Z,11.2
2023-01-12T20:26:59.661Z,11.1
2023-01-12T20:32:34.801Z,11.1
2023-01-12T20:38:10.171Z,11
2023-01-12T20:43:45.447Z,11
2023-01-12T20:49:21.835Z,11
2023-01-12T20:54:57.542Z,11
2023-01-12T21:00:33.026Z,11
2023-01-12T21:06:08.183Z,11
2023-01-12T21:11:43.355Z,11
2023-01-12T21:17:18.647Z,10.9
2023-01-12T21:22:56.321Z,10.9
2023-01-12T21:28:31.522Z,10.9
2023-01-12T21:34:06.832Z,10.9
2023-01-12T21:39:42.859Z,10.8
2023-01-12T21:45:20.447Z,10.8
2023-01-12T21:50:56.108Z,10.8
2023-01-12T21:56:31.063Z,10.8
2023-01-12T22:02:07.533Z,10.8
2023-01-12T22:07:44.949Z,10.8
2023-01-12T22:13:21.249Z,10.8
2023-01-12T22:18:56.309Z,10.8
2023-01-12T22:24:32.471Z,10.8
2023-01-12T22:30:08.443Z,10.8
2023-01-12T22:35:43.723Z,10.8
2023-01-12T22:41:19.554Z,10.7
2023-01-12T22:46:54.314Z,10.6
2023-01-12T22:52:29.419Z,10.6
2023-01-12T22:58:05.840Z,10.6
2023-01-12T23:03:59.097Z,10.6
2023-01-12T23:09:33.964Z,10.7
2023-01-12T23:15:12.912Z,10.7
2023-01-12T23:20:48.640Z,10.6
2023-01-12T23:26:24.048Z,10.6
2023-01-12T23:31:59.802Z,10.6
2023-01-12T23:37:34.855Z,10.5
2023-01-12T23:43:12.052Z,10.5
2023-01-12T23:48:48.629Z,10.4
2023-01-12T23:54:29.685Z,10.4
